createdAt,value
2022-11-06T00:00:33.555Z,11.63
2022-11-06T00:03:00.937Z,8.85
2022-11-06T00:05:46.745Z,9.63
2022-11-06T00:08:13.703Z,12.52
2022-11-06T00:10:40.597Z,11.30
2022-11-06T00:15:33.286Z,6.63
2022-11-06T00:17:59.941Z,12.05
2022-11-06T00:22:52.062Z,7.93
2022-11-06T00:25:18.614Z,8.88
2022-11-06T00:27:45.747Z,13.10
2022-11-06T00:30:12.613Z,12.27
2022-11-06T00:32:39.760Z,7.85
2022-11-06T00:35:06.611Z,10.90
2022-11-06T00:37:33.897Z,11.30
2022-11-06T00:40:00.858Z,10.43
2022-11-06T00:44:52.964Z,9.60
2022-11-06T00:47:19.588Z,16.63
2022-11-06T00:49:46.202Z,10.98
2022-11-06T00:52:13.090Z,11.77
2022-11-06T00:54:39.900Z,11.73
2022-11-06T00:59:32.773Z,10.30
2022-11-06T01:01:59.509Z,12.23
2022-11-06T01:04:26.199Z,7.15
2022-11-06T01:06:54.222Z,13.98
2022-11-06T01:09:22.174Z,9.07
2022-11-06T01:12:12.275Z,12.52
2022-11-06T01:14:38.775Z,16.48
2022-11-06T01:19:30.937Z,11.48
2022-11-06T01:21:57.774Z,10.27
2022-11-06T01:24:25.717Z,12.00
2022-11-06T01:32:04.715Z,8.88
2022-11-06T01:37:34.097Z,8.73
2022-11-06T01:40:00.783Z,8.18
2022-11-06T01:42:27.323Z,6.28
2022-11-06T01:47:42.667Z,12.65
2022-11-06T01:50:10.251Z,7.57
2022-11-06T01:52:37.115Z,9.10
2022-11-06T01:55:08.920Z,12.20
2022-11-06T01:57:35.468Z,7.63
2022-11-06T02:00:02.108Z,11.82
2022-11-06T02:02:31.828Z,6.78
2022-11-06T02:04:58.561Z,6.18
2022-11-06T02:12:17.233Z,7.05
2022-11-06T02:17:42.088Z,6.78
2022-11-06T02:23:20.253Z,5.25
2022-11-06T02:25:54.280Z,5.07
2022-11-06T02:28:24.094Z,8.35
2022-11-06T02:30:51.625Z,4.10
2022-11-06T02:35:53.738Z,6.45
2022-11-06T02:38:23.121Z,3.13
2022-11-06T02:40:52.965Z,4.30
2022-11-06T02:43:22.101Z,6.25
2022-11-06T02:50:50.209Z,6.20
2022-11-06T02:53:18.166Z,8.00
2022-11-06T02:55:47.229Z,10.45
2022-11-06T02:58:19.700Z,5.80
2022-11-06T03:00:50.731Z,6.68
2022-11-06T03:03:37.605Z,8.32
2022-11-06T03:08:36.459Z,8.82
2022-11-06T03:11:12.207Z,8.90
2022-11-06T03:13:51.457Z,6.00
2022-11-06T03:16:36.504Z,6.57
2022-11-06T03:19:17.986Z,11.75
2022-11-06T03:21:51.157Z,5.32
2022-11-06T03:24:44.134Z,8.02
2022-11-06T03:27:21.077Z,9.48
2022-11-06T03:29:49.864Z,8.95
2022-11-06T03:34:54.743Z,9.43
2022-11-06T03:39:54.687Z,8.07
2022-11-06T03:42:24.164Z,6.25
2022-11-06T03:49:54.843Z,6.32
2022-11-06T03:52:31.495Z,5.05
2022-11-06T03:57:34.121Z,6.63
2022-11-06T04:02:31.085Z,6.43
2022-11-06T04:04:59.755Z,4.35
2022-11-06T04:07:28.266Z,6.32
2022-11-06T04:10:15.690Z,4.32
2022-11-06T04:13:01.816Z,6.45
2022-11-06T04:15:31.573Z,4.45
2022-11-06T04:17:58.167Z,2.97
2022-11-06T04:20:47.473Z,4.43
2022-11-06T04:23:20.001Z,6.28
2022-11-06T04:33:42.954Z,5.90
2022-11-06T04:36:18.726Z,4.00
2022-11-06T04:41:16.585Z,5.90
2022-11-06T04:49:06.220Z,3.83
2022-11-06T04:51:36.217Z,5.35
2022-11-06T04:54:03.057Z,4.00
2022-11-06T04:56:34.706Z,3.15
2022-11-06T04:59:01.887Z,4.72
2022-11-06T05:01:28.561Z,6.20
2022-11-06T05:03:55.225Z,1.70
2022-11-06T05:06:27.050Z,1.90
2022-11-06T05:08:57.812Z,4.13
2022-11-06T05:11:24.758Z,3.53
2022-11-06T05:19:19.909Z,1.50
2022-11-06T05:24:30.458Z,3.20
2022-11-06T05:26:59.626Z,4.32
2022-11-06T05:31:52.016Z,2.17
2022-11-06T05:34:18.656Z,2.03
2022-11-06T05:36:45.223Z,2.10
2022-11-06T05:39:11.844Z,3.08
2022-11-06T05:41:38.450Z,2.50
2022-11-06T05:44:05.354Z,2.40
2022-11-06T05:53:48.736Z,1.38
2022-11-06T05:56:15.453Z,1.42
2022-11-06T05:58:48.107Z,2.05
2022-11-06T06:01:14.782Z,0.85
2022-11-06T06:03:41.431Z,1.27
2022-11-06T06:06:08.085Z,0.60
2022-11-06T06:08:34.678Z,2.83
2022-11-06T06:11:05.160Z,1.08
2022-11-06T06:13:31.693Z,3.17
2022-11-06T06:16:01.035Z,0.40
2022-11-06T06:18:27.673Z,0.30
2022-11-06T06:20:54.220Z,1.13
2022-11-06T06:23:20.790Z,0.70
2022-11-06T06:25:47.395Z,1.67
2022-11-06T06:28:14.274Z,0.95
2022-11-06T06:30:41.173Z,0.50
2022-11-06T06:33:07.819Z,0.40
2022-11-06T06:35:34.862Z,0.22
2022-11-06T06:48:27.719Z,1.30
2022-11-06T06:51:01.321Z,1.23
2022-11-06T06:53:28.551Z,0.52
2022-11-06T06:55:55.441Z,2.25
2022-11-06T06:58:22.293Z,0.95
2022-11-06T07:00:49.468Z,3.33
2022-11-06T07:03:16.410Z,0.85
2022-11-06T07:05:43.226Z,1.77
2022-11-06T07:10:35.963Z,1.33
2022-11-06T07:13:03.716Z,2.80
2022-11-06T07:15:30.663Z,1.95
2022-11-06T07:18:04.123Z,1.33
2022-11-06T07:20:30.961Z,2.15
2022-11-06T07:22:58.334Z,1.10
2022-11-06T07:25:25.728Z,1.05
2022-11-06T07:27:52.384Z,2.80
2022-11-06T07:30:19.084Z,3.00
2022-11-06T07:32:45.705Z,2.72
2022-11-06T07:35:12.297Z,2.70
2022-11-06T07:37:38.955Z,3.70
2022-11-06T07:40:05.898Z,1.00
2022-11-06T07:44:57.937Z,2.50
2022-11-06T07:47:24.644Z,1.40
2022-11-06T07:49:51.440Z,2.33
2022-11-06T07:57:08.832Z,1.25
2022-11-06T07:59:37.041Z,5.13
2022-11-06T08:02:03.756Z,2.42
2022-11-06T08:04:30.543Z,1.70
2022-11-06T08:06:57.402Z,1.00
2022-11-06T08:09:25.247Z,1.38
2022-11-06T08:11:51.823Z,1.38
2022-11-06T08:14:18.435Z,1.38
2022-11-06T08:19:10.411Z,1.30
2022-11-06T08:21:37.073Z,1.40
2022-11-06T08:24:04.305Z,1.20
2022-11-06T08:26:31.018Z,1.75
2022-11-06T08:34:28.282Z,2.08
2022-11-06T08:36:55.131Z,1.10
2022-11-06T08:39:22.545Z,1.88
2022-11-06T08:41:49.163Z,0.73
2022-11-06T08:44:15.995Z,1.00
2022-11-06T08:49:10.935Z,4.20
2022-11-06T08:51:37.558Z,1.33
2022-11-06T08:54:04.245Z,1.13
2022-11-06T08:56:31.002Z,2.38
2022-11-06T08:58:57.733Z,0.77
2022-11-06T09:01:24.521Z,2.10
2022-11-06T09:06:54.399Z,1.30
2022-11-06T09:09:21.676Z,3.13
2022-11-06T09:11:48.319Z,1.33
2022-11-06T09:19:05.832Z,1.70
2022-11-06T09:24:00.873Z,2.03
2022-11-06T09:26:31.990Z,1.40
2022-11-06T09:29:02.056Z,2.05
2022-11-06T09:31:30.572Z,2.70
2022-11-06T09:34:00.394Z,3.25
2022-11-06T09:36:29.622Z,2.88
2022-11-06T09:38:59.799Z,2.10
2022-11-06T09:46:49.689Z,0.82
2022-11-06T09:49:26.768Z,1.55
2022-11-06T09:54:25.022Z,1.48
2022-11-06T09:56:55.928Z,2.03
2022-11-06T09:59:22.925Z,2.13
2022-11-06T10:01:53.337Z,1.58
2022-11-06T10:04:38.524Z,2.40
2022-11-06T10:07:05.595Z,2.33
2022-11-06T10:09:33.358Z,1.10
2022-11-06T10:12:14.315Z,2.40
2022-11-06T10:15:02.208Z,1.63
2022-11-06T10:17:38.995Z,2.13
2022-11-06T10:20:27.613Z,3.67
2022-11-06T10:36:59.825Z,1.33
2022-11-06T10:39:31.159Z,3.75
2022-11-06T10:42:00.791Z,1.70
2022-11-06T10:44:29.355Z,2.28
2022-11-06T10:47:00.753Z,2.13
2022-11-06T10:49:30.379Z,3.47
2022-11-06T10:52:15.586Z,3.17
2022-11-06T10:54:51.068Z,2.00
2022-11-06T11:02:21.928Z,1.33
2022-11-06T11:04:48.573Z,2.15
2022-11-06T11:07:21.324Z,1.35
2022-11-06T11:15:09.556Z,3.53
2022-11-06T11:17:36.321Z,2.10
2022-11-06T11:20:03.060Z,2.47
2022-11-06T11:24:59.685Z,2.33
2022-11-06T11:27:28.432Z,3.53
2022-11-06T11:29:56.592Z,2.70
2022-11-06T11:32:23.556Z,1.95
2022-11-06T11:34:56.827Z,1.60
2022-11-06T11:37:33.989Z,2.13
2022-11-06T11:40:18.970Z,2.47
2022-11-06T11:45:12.785Z,1.30
2022-11-06T11:50:15.702Z,0.82
2022-11-06T11:52:43.168Z,1.83
2022-11-06T11:55:16.601Z,2.10
2022-11-06T11:57:48.645Z,2.38
2022-11-06T12:02:53.164Z,0.90
2022-11-06T12:05:23.637Z,2.60
2022-11-06T12:07:53.312Z,1.27
2022-11-06T12:10:22.764Z,2.25
2022-11-06T12:12:53.157Z,1.50
2022-11-06T12:15:21.282Z,1.05
2022-11-06T12:23:54.406Z,1.70
2022-11-06T12:26:30.373Z,1.27
2022-11-06T12:31:36.999Z,0.60
2022-11-06T12:36:37.109Z,3.60
2022-11-06T12:39:06.335Z,2.55
2022-11-06T12:41:40.683Z,0.98
2022-11-06T12:44:16.238Z,1.48
2022-11-06T12:47:08.019Z,2.47
2022-11-06T12:52:27.315Z,2.75
2022-11-06T12:55:19.296Z,3.13
2022-11-06T12:58:00.927Z,1.75
2022-11-06T13:00:31.931Z,1.73
2022-11-06T13:03:17.510Z,3.00
2022-11-06T13:16:51.377Z,2.20
2022-11-06T13:19:28.712Z,2.28
2022-11-06T13:24:51.016Z,2.90
2022-11-06T13:34:48.905Z,2.30
2022-11-06T13:37:18.489Z,1.42
2022-11-06T13:42:31.053Z,4.68
2022-11-06T13:44:58.553Z,3.38
2022-11-06T13:47:28.953Z,1.92
2022-11-06T13:52:43.464Z,2.92
2022-11-06T13:55:10.403Z,3.45
2022-11-06T13:57:44.693Z,2.53
2022-11-06T14:00:30.792Z,5.50
2022-11-06T14:03:09.703Z,3.50
2022-11-06T14:05:46.370Z,5.65
2022-11-06T14:10:47.994Z,5.30
2022-11-06T14:13:16.046Z,4.63
2022-11-06T14:18:22.236Z,6.38
2022-11-06T14:26:03.903Z,6.10
2022-11-06T14:28:37.028Z,3.45
2022-11-06T14:38:54.586Z,3.13
2022-11-06T14:44:05.166Z,5.63
2022-11-06T14:46:35.210Z,3.80
2022-11-06T14:51:57.069Z,5.18
2022-11-06T14:54:27.116Z,5.78
2022-11-06T14:56:54.653Z,5.10
2022-11-06T14:59:40.753Z,4.03
2022-11-06T15:02:18.365Z,4.25
2022-11-06T15:10:05.798Z,3.83
2022-11-06T15:12:51.405Z,5.18
2022-11-06T15:15:18.885Z,2.83
2022-11-06T15:17:46.019Z,4.68
2022-11-06T15:20:20.761Z,3.97
2022-11-06T15:22:56.068Z,3.33
2022-11-06T15:25:24.192Z,5.40
2022-11-06T15:28:00.142Z,5.05
2022-11-06T15:32:54.125Z,3.65
2022-11-06T15:35:25.781Z,9.18
2022-11-06T15:37:55.758Z,6.15
2022-11-06T15:40:23.944Z,5.35
2022-11-06T15:42:51.173Z,7.72
2022-11-06T15:47:59.582Z,6.43
2022-11-06T15:53:09.025Z,6.75
2022-11-06T15:55:37.625Z,8.52
2022-11-06T15:58:09.421Z,6.90
2022-11-06T16:00:36.566Z,2.92
2022-11-06T16:03:05.345Z,5.78
2022-11-06T16:05:34.365Z,17.50
2022-11-06T16:08:01.445Z,17.00
2022-11-06T16:10:28.243Z,15.35
2022-11-06T16:12:56.529Z,7.50
2022-11-06T16:20:47.214Z,6.57
2022-11-06T16:23:15.228Z,7.13
2022-11-06T16:25:42.134Z,13.82
2022-11-06T16:28:19.540Z,14.18
2022-11-06T16:45:56.089Z,11.82
2022-11-06T16:48:41.412Z,8.93
2022-11-06T16:51:09.735Z,9.57
2022-11-06T16:53:48.837Z,11.50
2022-11-06T17:06:32.689Z,8.63
2022-11-06T17:09:09.161Z,14.13
2022-11-06T17:11:38.136Z,7.35
2022-11-06T17:14:14.874Z,8.93
2022-11-06T17:16:45.916Z,11.85
2022-11-06T17:19:12.543Z,11.48
2022-11-06T17:21:39.304Z,6.80
2022-11-06T17:24:31.280Z,6.55
2022-11-06T17:29:22.389Z,7.28
2022-11-06T17:31:51.346Z,12.65
2022-11-06T17:41:34.601Z,10.70
2022-11-06T17:44:08.755Z,9.05
2022-11-06T17:46:36.774Z,11.68
2022-11-06T17:49:04.008Z,12.10
2022-11-06T17:51:49.288Z,13.65
2022-11-06T17:54:20.308Z,16.33
2022-11-06T17:56:47.521Z,11.25
2022-11-06T17:59:14.133Z,14.63
2022-11-06T18:01:42.207Z,14.95
2022-11-06T18:04:09.154Z,12.45
2022-11-06T18:06:36.097Z,11.57
2022-11-06T18:09:03.777Z,12.07
2022-11-06T18:11:30.929Z,9.82
2022-11-06T18:16:24.393Z,15.73
2022-11-06T18:18:51.313Z,16.90
2022-11-06T18:21:18.046Z,12.88
2022-11-06T18:23:44.835Z,13.30
2022-11-06T18:26:11.538Z,11.57
2022-11-06T18:35:59.615Z,12.32
2022-11-06T18:38:26.480Z,13.38
2022-11-06T18:40:53.055Z,16.33
2022-11-06T18:43:19.923Z,16.50
2022-11-06T18:45:46.526Z,22.20
2022-11-06T18:48:16.976Z,14.70
2022-11-06T18:50:46.517Z,17.63
2022-11-06T18:53:13.951Z,18.38
2022-11-06T18:55:46.938Z,17.60
2022-11-06T18:58:14.455Z,17.88
2022-11-06T19:00:41.286Z,17.60
2022-11-06T19:08:00.667Z,15.02
2022-11-06T19:10:29.506Z,13.07
2022-11-06T19:12:59.172Z,16.83
2022-11-06T19:15:26.365Z,12.23
2022-11-06T19:17:54.595Z,13.55
2022-11-06T19:20:22.894Z,20.45
2022-11-06T19:22:50.964Z,15.43
2022-11-06T19:25:18.270Z,15.50
2022-11-06T19:27:45.416Z,16.55
2022-11-06T19:30:12.536Z,21.42
2022-11-06T19:37:32.434Z,13.88
2022-11-06T19:40:05.497Z,14.20
2022-11-06T19:42:32.839Z,20.38
2022-11-06T19:49:58.213Z,19.73
2022-11-06T19:57:29.195Z,18.27
2022-11-06T20:02:22.411Z,17.10
2022-11-06T20:04:49.618Z,14.65
2022-11-06T20:09:42.055Z,31.25
2022-11-06T20:12:08.857Z,16.45
2022-11-06T20:14:35.604Z,19.58
2022-11-06T20:17:02.281Z,19.15
2022-11-06T20:19:29.248Z,20.60
2022-11-06T20:21:56.215Z,12.88
2022-11-06T20:24:22.864Z,20.20
2022-11-06T20:26:49.530Z,20.27
2022-11-06T20:31:41.921Z,11.68
2022-11-06T20:42:02.167Z,21.00
2022-11-06T20:44:28.850Z,17.17
2022-11-06T20:46:55.487Z,20.45
2022-11-06T20:49:22.070Z,18.35
2022-11-06T20:54:14.176Z,12.13
2022-11-06T20:56:40.850Z,16.30
2022-11-06T21:08:50.533Z,21.33
2022-11-06T21:11:18.747Z,17.58
2022-11-06T21:13:46.562Z,25.15
2022-11-06T21:16:17.256Z,17.27
2022-11-06T21:18:44.010Z,14.40
2022-11-06T21:21:12.365Z,27.13
2022-11-06T21:23:39.322Z,17.10
2022-11-06T21:26:16.685Z,20.00
2022-11-06T21:28:43.540Z,18.27
2022-11-06T21:31:11.159Z,18.50
2022-11-06T21:33:41.686Z,20.70
2022-11-06T21:36:11.156Z,24.42
2022-11-06T21:38:38.008Z,15.43
2022-11-06T21:41:08.283Z,17.80
2022-11-06T21:43:35.222Z,14.63
2022-11-06T21:46:03.023Z,16.95
2022-11-06T21:50:55.139Z,22.42
2022-11-06T22:01:04.414Z,27.48
2022-11-06T22:03:32.061Z,20.13
2022-11-06T22:08:31.549Z,25.10
2022-11-06T22:10:58.189Z,19.38
2022-11-06T22:15:50.232Z,25.98
2022-11-06T22:18:16.902Z,21.10
2022-11-06T22:20:43.524Z,25.95
2022-11-06T22:23:10.141Z,19.27
2022-11-06T22:25:38.694Z,19.80
2022-11-06T22:28:05.400Z,24.05
2022-11-06T22:30:32.153Z,18.08
2022-11-06T22:32:58.700Z,16.42
2022-11-06T22:37:50.737Z,24.10
2022-11-06T22:40:17.410Z,19.63
2022-11-06T22:47:35.013Z,19.00
2022-11-06T22:52:27.131Z,22.52
2022-11-06T22:54:53.761Z,17.33
2022-11-06T23:02:39.415Z,19.02
2022-11-06T23:05:06.289Z,26.88
2022-11-06T23:07:32.909Z,28.98
2022-11-06T23:09:59.525Z,20.70
2022-11-06T23:12:26.147Z,13.98
2022-11-06T23:14:52.851Z,21.05
2022-11-06T23:17:19.418Z,23.13
2022-11-06T23:19:46.079Z,18.52
2022-11-06T23:24:56.438Z,17.00
2022-11-06T23:27:23.817Z,20.80
2022-11-06T23:29:50.448Z,19.65
2022-11-06T23:32:17.043Z,14.93
2022-11-06T23:34:43.678Z,18.75
2022-11-06T23:37:10.298Z,14.05
2022-11-06T23:39:36.916Z,19.10
2022-11-06T23:42:03.526Z,22.35
2022-11-06T23:44:48.843Z,18.35
2022-11-06T23:47:15.485Z,16.23
2022-11-06T23:49:42.135Z,15.57
2022-11-06T23:52:08.778Z,13.25
2022-11-06T23:54:35.399Z,21.52
2022-11-06T23:57:01.981Z,20.30
